Freeport, Illinois
Current Conditions -  °F | °C
As of 2:55 AM on Saturday 29 Nov 2014 (Local Time) from KFEP Reporting Station
Clear Clear  
Wind Chill: 25°   Ceiling: Unl
Heat Index: 30°   Visibility: 7mi
Dew Point: 27°   Wind: 5mph
Humidity: 90%   Direction: 120°ESE
Pressure: 29.74"   Gusts: NA
Location:  42.3°N, 89.62°W
Report Text: KFEP 290855Z AUTO 12004KT 7SM CLR M01/M03 A2974 RMK AO2 T10121026
Loading
Personal Weather Stations






























Interactive Weather Map New forecast layout! Learn more

10-Day Weather Forecast

Advertisements
Track Severe Weather on mobile